CFG146 GCLP-EDDF
Flight info
| Callsign | CFG146 |
|---|---|
| Flight time | N/A |
| Altitude | 34000 |
| Route | VASTO DCT BAROK/N0455F360 DCT BARDI DCT ZMR DCT NUBLO DCT RONSI DCT DELOG DCT DIDIG DCT ARDOD UN873 OBATO UM163 TSU UN858 OQQAL DCT RANUX/N0457F370 DCT VALEK DCT LUTAX DCT DIK T856 NIVNU T847 IMCOM IMCOM1A |
| Aircraft | A320/M-SDE3FGHIRWY/LB1 |
Departure
| Time | 2026-05-06 13:36 |
|---|---|
| Airport | Gran Canaria Airport (GCLP) |
Arrival
| Time | N/A |
|---|---|
| Airport | Frankfurt Main Airport (EDDF) |
| Time | Latitude | Longitude | Altitude | Speed | Heading |
|---|---|---|---|---|---|
| 2026-05-06 13:24 | 27.93773 | -15.38855 | 88 ft | 0 kts | 291° |
| 2026-05-06 13:29 | 27.93772 | -15.38853 | 84 ft | 2 kts | 291° |
| 2026-05-06 13:29 | 27.93763 | -15.38826 | 87 ft | 4 kts | 291° |
| 2026-05-06 13:30 | 27.93755 | -15.38802 | 85 ft | 4 kts | 284° |
| 2026-05-06 13:30 | 27.93755 | -15.38775 | 85 ft | 4 kts | 234° |
| 2026-05-06 13:30 | 27.93775 | -15.38756 | 88 ft | 4 kts | 204° |
| 2026-05-06 13:30 | 27.93789 | -15.38750 | 86 ft | 0 kts | 201° |
| 2026-05-06 13:32 | 27.93773 | -15.38757 | 88 ft | 11 kts | 201° |
| 2026-05-06 13:32 | 27.93620 | -15.38825 | 87 ft | 27 kts | 201° |
| 2026-05-06 13:32 | 27.93471 | -15.38873 | 84 ft | 18 kts | 167° |
| 2026-05-06 13:33 | 27.93398 | -15.38767 | 72 ft | 16 kts | 168° |
| 2026-05-06 13:33 | 27.93262 | -15.38817 | 70 ft | 29 kts | 199° |
| 2026-05-06 13:33 | 27.93074 | -15.38909 | 70 ft | 29 kts | 201° |
| 2026-05-06 13:33 | 27.92894 | -15.38988 | 81 ft | 27 kts | 201° |
| 2026-05-06 13:34 | 27.92729 | -15.39059 | 87 ft | 24 kts | 201° |
| 2026-05-06 13:34 | 27.92535 | -15.39146 | 93 ft | 34 kts | 201° |
| 2026-05-06 13:34 | 27.92322 | -15.39240 | 99 ft | 32 kts | 202° |
| 2026-05-06 13:34 | 27.92117 | -15.39306 | 95 ft | 29 kts | 180° |
| 2026-05-06 13:35 | 27.91940 | -15.39283 | 88 ft | 17 kts | 151° |
| 2026-05-06 13:35 | 27.91938 | -15.39210 | 85 ft | 11 kts | 27° |
| 2026-05-06 13:35 | 27.92038 | -15.39167 | 84 ft | 31 kts | 21° |
| 2026-05-06 13:35 | 27.92467 | -15.38979 | 71 ft | 98 kts | 22° |
| 2026-05-06 13:36 | 27.93286 | -15.38614 | 59 ft | 152 kts | 22° |
| 2026-05-06 13:36 | 27.94339 | -15.38149 | 474 ft | 166 kts | 21° |
| 2026-05-06 13:36 | 27.95442 | -15.37695 | 1100 ft | 168 kts | 22° |
| 2026-05-06 13:36 | 27.96524 | -15.37261 | 1594 ft | 166 kts | 21° |
| 2026-05-06 13:37 | 27.97632 | -15.36817 | 2180 ft | 170 kts | 22° |
| 2026-05-06 13:37 | 27.98727 | -15.36306 | 2812 ft | 170 kts | 22° |
| 2026-05-06 13:37 | 27.99858 | -15.35793 | 3259 ft | 184 kts | 21° |
| 2026-05-06 13:37 | 28.01123 | -15.35235 | 3521 ft | 206 kts | 19° |
| 2026-05-06 13:38 | 28.02527 | -15.34619 | 3823 ft | 229 kts | 20° |
| 2026-05-06 13:38 | 28.04100 | -15.33928 | 3990 ft | 253 kts | 19° |
| 2026-05-06 13:38 | 28.05759 | -15.33185 | 4055 ft | 260 kts | 24° |
| 2026-05-06 13:38 | 28.07390 | -15.32250 | 4809 ft | 264 kts | 26° |
| 2026-05-06 13:39 | 28.09029 | -15.31260 | 5586 ft | 269 kts | 26° |
| 2026-05-06 13:39 | 28.10695 | -15.30237 | 6341 ft | 275 kts | 26° |